Time;durP1;ratioP1;P1;durP2;ratioP2;P2;SDS_P1;SDS_P2;PMS_P1;PMS_P2;Temp;Humidity;BMP_temperature;BMP_pressure;BME280_temperature;BME280_humidity;BME280_pressure;Samples;Min_cycle;Max_cycle;Signal;HPM_P1;HPM_P2
2022/08/01 00:01:38;;;;;;;14.52;7.78;;;15.50;99.90;;;;;;4888485;29;20060;-74
2022/08/01 00:04:05;;;;;;;15.02;7.30;;;15.40;99.90;;;;;;4877034;29;20198;-74
2022/08/01 00:06:32;;;;;;;16.02;7.53;;;15.40;99.90;;;;;;4896059;29;20057;-74
2022/08/01 00:09:02;;;;;;;11.63;6.90;;;15.40;99.90;;;;;;4896046;29;20143;-71
2022/08/01 00:11:29;;;;;;;16.20;7.20;;;15.40;99.90;;;;;;4894241;29;20040;-71
2022/08/01 00:13:57;;;;;;;13.27;6.72;;;15.30;99.90;;;;;;4894952;29;20478;-70
2022/08/01 00:16:24;;;;;;;12.63;6.72;;;15.30;99.90;;;;;;4895966;29;20108;-70
2022/08/01 00:18:53;;;;;;;11.65;7.13;;;15.30;99.90;;;;;;4894673;29;20048;-69
2022/08/01 00:21:20;;;;;;;13.50;7.20;;;15.30;99.90;;;;;;4887724;29;20498;-70
2022/08/01 00:23:48;;;;;;;14.23;6.85;;;15.20;99.90;;;;;;4894383;29;20139;-69
2022/08/01 00:26:15;;;;;;;13.30;7.10;;;15.20;99.90;;;;;;4894725;29;20045;-70
2022/08/01 00:28:42;;;;;;;8.45;6.75;;;15.20;99.90;;;;;;4895683;29;20079;-70
2022/08/01 00:31:10;;;;;;;11.15;6.72;;;15.20;99.90;;;;;;4877500;29;20133;-70
2022/08/01 00:33:37;;;;;;;12.32;6.63;;;15.20;99.90;;;;;;4892700;29;20422;-70
2022/08/01 00:36:05;;;;;;;9.88;6.05;;;15.20;99.90;;;;;;4894075;29;20040;-69
2022/08/01 00:38:33;;;;;;;13.13;6.45;;;15.20;99.90;;;;;;4895701;29;20452;-70
2022/08/01 00:41:00;;;;;;;10.55;7.45;;;15.10;99.90;;;;;;4891393;29;20092;-70
2022/08/01 00:43:27;;;;;;;14.15;7.20;;;15.10;99.90;;;;;;4895539;29;20498;-71
2022/08/01 00:45:54;;;;;;;14.93;6.75;;;15.10;99.90;;;;;;4891420;29;20049;-70
2022/08/01 00:48:21;;;;;;;10.05;6.00;;;15.10;99.90;;;;;;4875340;29;20501;-70
2022/08/01 00:50:49;;;;;;;10.30;6.15;;;15.10;99.90;;;;;;4887352;29;20057;-70
2022/08/01 00:53:17;;;;;;;10.25;6.97;;;15.10;99.90;;;;;;4878648;29;20057;-70
2022/08/01 00:55:45;;;;;;;11.70;6.93;;;15.20;99.90;;;;;;4895867;29;20059;-70
2022/08/01 00:58:24;;;;;;;15.98;7.82;;;15.10;99.90;;;;;;4870648;29;20458;-70
2022/08/01 01:00:51;;;;;;;13.40;7.43;;;15.10;99.90;;;;;;4894999;29;20053;-71
2022/08/01 01:03:18;;;;;;;13.63;6.88;;;15.20;99.90;;;;;;4894175;29;20113;-70
2022/08/01 01:05:54;;;;;;;10.50;6.57;;;15.10;99.90;;;;;;4894291;29;20052;-70
2022/08/01 01:08:31;;;;;;;16.25;7.80;;;15.10;99.90;;;;;;4889181;29;20112;-71
2022/08/01 01:11:05;;;;;;;14.48;8.05;;;15.20;99.90;;;;;;4895128;29;20064;-71
2022/08/01 01:13:39;;;;;;;15.88;8.10;;;15.20;99.90;;;;;;4895813;29;20112;-70
2022/08/01 01:16:11;;;;;;;14.05;7.82;;;15.30;99.90;;;;;;4894851;29;20056;-71
2022/08/01 01:18:41;;;;;;;27.30;8.67;;;15.30;99.90;;;;;;4894737;29;20076;-70
2022/08/01 01:21:18;;;;;;;17.85;8.90;;;15.40;99.90;;;;;;4893092;29;20300;-71
2022/08/01 01:23:56;;;;;;;17.55;9.18;;;15.40;99.90;;;;;;4909714;29;20459;-72
2022/08/01 01:26:37;;;;;;;11.00;8.23;;;15.40;99.90;;;;;;4892977;29;20084;-70
2022/08/01 01:29:13;;;;;;;15.02;8.77;;;15.40;99.90;;;;;;4892680;29;20080;-71
2022/08/01 01:31:47;;;;;;;15.43;10.07;;;15.40;99.90;;;;;;4875746;29;20147;-71
2022/08/01 01:34:16;;;;;;;13.85;9.75;;;15.40;99.90;;;;;;4859563;29;20057;-71
2022/08/01 01:36:45;;;;;;;15.10;10.02;;;15.40;99.90;;;;;;4890597;29;20185;-70
2022/08/01 01:39:14;;;;;;;18.05;11.43;;;15.40;99.90;;;;;;4893824;29;20112;-70
2022/08/01 01:41:44;;;;;;;20.23;10.95;;;15.40;99.90;;;;;;4892414;29;20535;-71
2022/08/01 01:44:12;;;;;;;12.13;10.10;;;15.40;99.90;;;;;;4880062;29;20100;-70
2022/08/01 01:46:41;;;;;;;17.05;10.15;;;15.30;99.90;;;;;;4898103;29;20437;-70
2022/08/01 01:49:10;;;;;;;19.35;11.02;;;15.30;99.90;;;;;;4897523;29;20072;-70
2022/08/01 01:51:39;;;;;;;20.00;11.30;;;15.30;99.90;;;;;;4898038;29;20064;-70
2022/08/01 01:54:09;;;;;;;17.35;11.15;;;15.30;99.90;;;;;;4895796;29;20056;-70
2022/08/01 01:56:48;;;;;;;17.80;11.30;;;15.30;99.90;;;;;;4896677;29;20056;-70
2022/08/01 01:59:21;;;;;;;19.40;9.95;;;15.30;99.90;;;;;;4889793;29;20078;-70
2022/08/01 02:01:52;;;;;;;15.35;9.98;;;15.30;99.90;;;;;;4896960;29;20494;-70
2022/08/01 02:04:21;;;;;;;14.15;9.43;;;15.30;99.90;;;;;;4895238;29;20131;-70
2022/08/01 02:06:51;;;;;;;19.40;10.68;;;15.30;99.90;;;;;;4897002;29;20044;-69
2022/08/01 02:09:20;;;;;;;13.75;9.70;;;15.30;99.90;;;;;;4878968;29;20081;-70
2022/08/01 02:11:49;;;;;;;15.32;10.02;;;15.30;99.90;;;;;;4886817;29;20056;-70
2022/08/01 02:14:20;;;;;;;17.98;10.65;;;15.30;99.90;;;;;;4898007;29;20569;-69
2022/08/01 02:16:49;;;;;;;14.88;9.90;;;15.30;99.90;;;;;;4896670;29;20052;-70
2022/08/01 02:19:19;;;;;;;17.92;9.52;;;15.30;99.90;;;;;;4882272;29;20055;-70
2022/08/01 02:21:51;;;;;;;17.52;9.48;;;15.30;99.90;;;;;;4892064;29;20055;-70
2022/08/01 02:24:25;;;;;;;15.93;9.55;;;15.30;99.90;;;;;;4897809;29;20072;-70
2022/08/01 02:26:55;;;;;;;25.20;10.10;;;15.30;99.90;;;;;;4895188;29;20076;-69
2022/08/01 02:29:28;;;;;;;14.38;9.63;;;15.30;99.90;;;;;;4881244;29;20048;-69
2022/08/01 02:31:57;;;;;;;15.13;9.82;;;15.30;99.90;;;;;;4897727;29;20053;-70
2022/08/01 02:34:31;;;;;;;14.57;9.20;;;15.30;99.90;;;;;;4897895;29;20048;-71
2022/08/01 02:37:01;;;;;;;16.17;9.95;;;15.30;99.90;;;;;;4897351;29;20060;-70
2022/08/01 02:39:30;;;;;;;18.23;9.68;;;15.40;99.90;;;;;;4896600;29;20509;-70
2022/08/01 02:42:03;;;;;;;14.43;10.02;;;15.40;99.90;;;;;;4896583;29;20084;-70
2022/08/01 02:44:36;;;;;;;18.95;9.48;;;15.40;99.90;;;;;;4897397;29;20076;-70
2022/08/01 02:47:04;;;;;;;17.05;9.88;;;15.50;99.90;;;;;;4884682;29;20056;-69
2022/08/01 02:49:34;;;;;;;19.60;10.57;;;15.50;99.90;;;;;;4879404;29;20123;-70
2022/08/01 02:52:05;;;;;;;14.00;9.63;;;15.50;99.90;;;;;;4877485;29;20076;-69
2022/08/01 02:54:33;;;;;;;18.63;9.93;;;15.50;99.90;;;;;;4863450;29;20195;-70
2022/08/01 02:57:03;;;;;;;15.25;9.80;;;15.50;99.90;;;;;;4896214;29;20512;-70
2022/08/01 02:59:34;;;;;;;16.08;9.45;;;15.50;99.90;;;;;;4897066;29;20061;-70
2022/08/01 03:02:04;;;;;;;14.48;9.55;;;15.60;99.90;;;;;;4897704;29;20513;-71
2022/08/01 03:04:35;;;;;;;14.65;8.85;;;15.60;99.90;;;;;;4885652;29;20136;-71
2022/08/01 03:07:04;;;;;;;14.52;9.05;;;15.70;99.90;;;;;;4891741;29;20048;-71
2022/08/01 03:09:36;;;;;;;13.05;8.45;;;15.70;99.90;;;;;;4895859;29;20159;-72
2022/08/01 03:12:07;;;;;;;19.15;10.18;;;15.70;99.90;;;;;;4896587;29;20123;-70
2022/08/01 03:14:39;;;;;;;14.15;8.95;;;15.70;99.90;;;;;;4878958;29;20048;-71
2022/08/01 03:17:08;;;;;;;17.63;9.25;;;15.80;99.90;;;;;;4896776;29;20112;-71
2022/08/01 03:19:38;;;;;;;14.90;8.68;;;15.80;99.90;;;;;;4895495;29;20147;-71
2022/08/01 03:22:08;;;;;;;19.10;10.00;;;15.80;99.90;;;;;;4896814;29;20048;-71
2022/08/01 03:24:38;;;;;;;17.02;8.73;;;15.90;99.90;;;;;;4883955;29;20063;-71
2022/08/01 03:27:05;;;;;;;23.77;9.10;;;16.00;99.90;;;;;;4900111;29;20044;-70
2022/08/01 03:29:35;;;;;;;19.45;9.38;;;16.00;99.90;;;;;;4895444;29;20055;-70
2022/08/01 03:32:04;;;;;;;13.57;9.18;;;16.10;99.90;;;;;;4887784;29;20045;-69
2022/08/01 03:34:31;;;;;;;16.27;8.55;;;16.10;99.90;;;;;;4894507;29;20063;-70
2022/08/01 03:37:04;;;;;;;21.17;9.10;;;16.20;99.90;;;;;;4894619;29;20296;-71
2022/08/01 03:39:37;;;;;;;17.70;9.95;;;16.20;99.90;;;;;;4896727;29;20048;-71
2022/08/01 03:42:09;;;;;;;22.60;10.23;;;16.20;99.90;;;;;;4896104;29;20115;-72
2022/08/01 03:44:38;;;;;;;19.88;8.85;;;16.20;99.90;;;;;;4895108;29;20058;-70
2022/08/01 03:47:09;;;;;;;28.13;10.73;;;16.20;99.90;;;;;;4894452;29;20076;-70
2022/08/01 03:49:41;;;;;;;17.80;10.52;;;16.30;99.90;;;;;;4896603;29;20052;-69
2022/08/01 03:52:10;;;;;;;26.65;11.00;;;16.30;99.90;;;;;;4895285;29;20064;-70
2022/08/01 03:54:41;;;;;;;19.33;10.57;;;16.30;99.90;;;;;;4896355;29;20131;-69
2022/08/01 03:57:09;;;;;;;20.40;10.65;;;16.30;99.90;;;;;;4892455;29;20076;-70
2022/08/01 03:59:38;;;;;;;20.38;10.43;;;16.40;99.90;;;;;;4894659;29;20053;-71
2022/08/01 04:02:07;;;;;;;23.33;11.43;;;16.40;99.90;;;;;;4893563;29;20053;-70
2022/08/01 04:04:34;;;;;;;23.08;12.43;;;16.40;99.90;;;;;;4880933;29;20094;-70
2022/08/01 04:07:06;;;;;;;20.00;11.40;;;16.40;99.90;;;;;;4892740;29;20071;-70
2022/08/01 04:09:33;;;;;;;21.75;10.48;;;16.40;99.90;;;;;;4894284;29;20052;-70
2022/08/01 04:12:01;;;;;;;22.98;11.90;;;16.50;99.90;;;;;;4896633;29;20052;-74
2022/08/01 04:14:28;;;;;;;23.33;11.88;;;16.50;99.90;;;;;;4879825;29;20160;-73
2022/08/01 04:16:56;;;;;;;22.60;12.60;;;16.60;99.90;;;;;;4896016;29;20048;-73
2022/08/01 04:19:25;;;;;;;24.55;12.57;;;16.70;99.90;;;;;;4895288;29;20052;-73
2022/08/01 04:21:56;;;;;;;24.42;13.10;;;16.80;99.90;;;;;;4894677;29;20056;-70
2022/08/01 04:24:27;;;;;;;24.05;12.50;;;16.90;99.90;;;;;;4898306;29;20071;-73
2022/08/01 04:26:56;;;;;;;32.75;14.50;;;17.00;99.90;;;;;;4896126;29;20100;-70
2022/08/01 04:29:23;;;;;;;32.45;14.20;;;17.10;99.90;;;;;;4894558;29;20052;-70
2022/08/01 04:31:54;;;;;;;30.10;13.95;;;17.10;99.90;;;;;;4885104;29;20139;-71
2022/08/01 04:34:26;;;;;;;33.03;12.45;;;17.20;99.90;;;;;;4882407;29;20200;-70
2022/08/01 04:37:00;;;;;;;25.27;12.02;;;17.30;99.90;;;;;;4885740;29;20056;-69
2022/08/01 04:39:32;;;;;;;27.20;12.13;;;17.40;99.90;;;;;;4878585;29;20504;-70
2022/08/01 04:42:03;;;;;;;25.77;12.20;;;17.50;99.90;;;;;;4892718;29;20052;-70
2022/08/01 04:44:32;;;;;;;28.95;11.98;;;17.60;99.90;;;;;;4887333;29;20100;-70
2022/08/01 04:47:00;;;;;;;23.48;12.48;;;17.70;99.90;;;;;;4898661;29;20044;-71
2022/08/01 04:49:30;;;;;;;31.38;12.63;;;17.70;99.90;;;;;;4900376;29;20073;-71
2022/08/01 04:51:59;;;;;;;23.33;10.50;;;17.90;99.90;;;;;;4889736;29;20045;-72
2022/08/01 04:54:27;;;;;;;17.60;9.70;;;18.00;99.90;;;;;;4892099;29;20424;-72
2022/08/01 04:56:59;;;;;;;19.70;9.88;;;18.10;99.90;;;;;;4892253;29;20048;-74
2022/08/01 04:59:42;;;;;;;16.77;8.98;;;18.20;99.90;;;;;;4892945;29;20093;-74
2022/08/01 05:02:11;;;;;;;16.52;9.38;;;18.20;99.90;;;;;;4891951;29;20081;-75
2022/08/01 05:04:41;;;;;;;18.23;8.95;;;18.30;99.90;;;;;;4894338;29;20053;-75
2022/08/01 05:07:08;;;;;;;19.08;7.75;;;18.30;99.90;;;;;;4878233;29;20056;-76
2022/08/01 05:09:36;;;;;;;17.20;7.50;;;18.40;99.90;;;;;;4885762;29;20051;-75
2022/08/01 05:12:06;;;;;;;15.07;7.88;;;18.50;99.90;;;;;;4897618;29;20052;-72
2022/08/01 05:14:34;;;;;;;14.50;7.53;;;18.60;99.90;;;;;;4893358;29;20565;-73
2022/08/01 05:17:02;;;;;;;13.93;7.63;;;18.70;99.90;;;;;;4892915;29;20060;-72
2022/08/01 05:19:31;;;;;;;12.80;7.55;;;18.70;99.90;;;;;;4893396;29;20446;-72
2022/08/01 05:22:01;;;;;;;16.23;8.13;;;18.80;99.90;;;;;;4894955;29;20047;-72
2022/08/01 05:24:29;;;;;;;10.43;6.38;;;18.90;99.90;;;;;;4893902;29;20147;-72
2022/08/01 05:26:56;;;;;;;13.80;6.90;;;19.10;99.90;;;;;;4894906;29;20053;-77
2022/08/01 05:29:23;;;;;;;13.88;7.18;;;19.30;99.90;;;;;;4897584;29;20052;-78
2022/08/01 05:31:51;;;;;;;13.05;5.75;;;19.40;99.90;;;;;;4893764;29;20509;-76
2022/08/01 05:34:18;;;;;;;10.95;6.13;;;19.50;99.90;;;;;;4898445;29;20084;-76
2022/08/01 05:36:45;;;;;;;17.60;6.88;;;19.70;99.90;;;;;;4895913;29;20123;-71
2022/08/01 05:39:14;;;;;;;13.57;6.55;;;19.80;99.90;;;;;;4895869;29;20066;-71
2022/08/01 05:41:42;;;;;;;11.77;5.35;;;20.10;99.90;;;;;;4892087;29;20099;-71
2022/08/01 05:44:11;;;;;;;10.10;6.05;;;20.30;99.90;;;;;;4892281;29;20543;-77
2022/08/01 05:46:39;;;;;;;19.25;5.93;;;20.40;99.90;;;;;;4895721;29;20049;-72
2022/08/01 05:49:07;;;;;;;13.07;5.97;;;20.70;99.90;;;;;;4889481;29;20053;-73
2022/08/01 05:51:34;;;;;;;10.75;5.20;;;20.80;99.90;;;;;;4899961;29;20124;-77
2022/08/01 05:54:02;;;;;;;12.65;5.28;;;20.90;99.90;;;;;;4897922;29;20048;-77
2022/08/01 05:56:30;;;;;;;14.05;6.53;;;21.10;99.90;;;;;;4897388;29;20100;-77
2022/08/01 05:58:58;;;;;;;14.38;5.70;;;21.30;99.90;;;;;;4906577;29;20082;-77
2022/08/01 06:01:25;;;;;;;16.75;6.10;;;21.50;99.90;;;;;;4917359;29;20333;-77
2022/08/01 06:03:54;;;;;;;14.90;5.40;;;21.60;99.90;;;;;;4913677;29;20056;-76
2022/08/01 06:06:21;;;;;;;12.50;5.95;;;21.60;99.90;;;;;;4903921;29;20144;-76
2022/08/01 06:08:49;;;;;;;15.38;6.25;;;21.60;99.90;;;;;;4922294;29;20051;-77
2022/08/01 06:11:16;;;;;;;16.65;7.22;;;21.60;99.90;;;;;;4889806;29;20425;-72
2022/08/01 06:13:44;;;;;;;13.65;6.10;;;21.60;99.90;;;;;;4906850;29;20153;-72
2022/08/01 06:16:12;;;;;;;15.35;6.95;;;21.60;99.90;;;;;;4903470;29;20478;-73
2022/08/01 06:18:40;;;;;;;15.15;6.43;;;21.60;99.90;;;;;;4905859;29;20047;-75
2022/08/01 06:21:07;;;;;;;14.50;6.30;;;21.70;99.90;;;;;;4907123;29;20536;-73
2022/08/01 06:23:34;;;;;;;13.00;6.18;;;21.60;99.90;;;;;;4905999;29;20067;-73
2022/08/01 06:26:02;;;;;;;15.18;7.60;;;21.70;99.90;;;;;;4911443;29;20088;-75
2022/08/01 06:28:29;;;;;;;12.50;6.57;;;21.70;99.90;;;;;;4879494;29;20052;-75
2022/08/01 06:30:59;;;;;;;9.48;5.68;;;21.70;99.90;;;;;;4896987;29;20075;-75
2022/08/01 06:33:27;;;;;;;14.38;5.45;;;21.70;99.90;;;;;;4895827;29;20055;-74
2022/08/01 06:35:54;;;;;;;16.25;6.50;;;21.70;99.90;;;;;;4892637;29;20453;-74
2022/08/01 06:38:22;;;;;;;14.55;5.47;;;21.70;99.90;;;;;;4890902;29;20532;-73
2022/08/01 06:40:49;;;;;;;15.15;6.45;;;21.80;99.90;;;;;;4898745;29;20056;-73
2022/08/01 06:43:18;;;;;;;12.50;5.72;;;21.80;99.90;;;;;;4902986;29;20059;-73
2022/08/01 06:45:45;;;;;;;12.73;5.75;;;21.80;99.90;;;;;;4877983;29;20052;-72
2022/08/01 06:48:14;;;;;;;15.80;5.93;;;21.70;99.90;;;;;;4889644;29;20394;-72
2022/08/01 06:50:41;;;;;;;19.75;7.25;;;21.70;99.90;;;;;;4897034;29;20057;-74
2022/08/01 06:53:08;;;;;;;20.42;7.43;;;21.70;99.90;;;;;;4895388;29;20385;-73
2022/08/01 06:55:35;;;;;;;19.50;6.75;;;21.60;99.90;;;;;;4888526;29;20495;-73
2022/08/01 06:58:05;;;;;;;15.63;7.55;;;21.70;99.90;;;;;;4905026;29;20048;-73
2022/08/01 07:00:32;;;;;;;23.42;7.35;;;21.70;99.90;;;;;;4901431;29;20059;-71
2022/08/01 07:03:00;;;;;;;18.58;7.95;;;21.60;99.90;;;;;;4900055;29;20727;-71
2022/08/01 07:05:30;;;;;;;23.67;8.05;;;21.60;99.90;;;;;;4902738;29;20119;-73
2022/08/01 07:07:58;;;;;;;25.63;8.57;;;21.70;99.90;;;;;;4896866;29;20060;-72
2022/08/01 07:10:26;;;;;;;22.50;8.45;;;21.80;99.90;;;;;;4893930;29;20057;-75
2022/08/01 07:12:53;;;;;;;16.45;7.28;;;22.00;99.90;;;;;;4902651;29;20052;-76
2022/08/01 07:15:26;;;;;;;21.33;8.30;;;22.10;99.90;;;;;;4914493;29;20142;-74
2022/08/01 07:17:53;;;;;;;18.55;7.40;;;22.20;99.90;;;;;;4895579;29;20060;-73
2022/08/01 07:20:20;;;;;;;18.52;7.03;;;22.30;99.90;;;;;;4888227;29;20490;-73
2022/08/01 07:22:49;;;;;;;20.70;7.68;;;22.40;99.90;;;;;;4890520;29;20085;-73
2022/08/01 07:25:16;;;;;;;20.42;7.43;;;22.40;99.90;;;;;;4887366;29;20067;-73
2022/08/01 07:27:44;;;;;;;22.38;7.78;;;22.40;99.90;;;;;;4896708;29;20056;-71
2022/08/01 07:30:12;;;;;;;20.25;8.98;;;22.30;99.90;;;;;;4903665;29;20044;-74
2022/08/01 07:32:39;;;;;;;23.35;7.75;;;22.40;99.90;;;;;;4901954;29;20533;-70
2022/08/01 07:35:08;;;;;;;28.33;9.18;;;22.40;99.90;;;;;;4899842;29;20513;-72
2022/08/01 07:37:40;;;;;;;23.15;7.78;;;22.50;99.90;;;;;;4899051;29;20155;-71
2022/08/01 07:40:12;;;;;;;15.82;6.65;;;22.50;99.90;;;;;;4883462;29;20052;-70
2022/08/01 07:42:43;;;;;;;17.48;6.72;;;22.60;99.90;;;;;;4885941;29;20051;-73
2022/08/01 07:45:11;;;;;;;22.73;6.30;;;22.60;99.90;;;;;;4900326;29;20060;-74
2022/08/01 07:47:38;;;;;;;22.60;5.68;;;22.80;99.90;;;;;;4894145;29;20096;-71
2022/08/01 07:50:07;;;;;;;16.20;5.47;;;22.80;99.90;;;;;;4893068;29;20589;-73
2022/08/01 07:52:34;;;;;;;13.90;5.95;;;22.80;99.90;;;;;;4898729;29;20103;-76
2022/08/01 07:55:02;;;;;;;15.93;5.38;;;22.90;99.90;;;;;;4892754;29;20433;-72
2022/08/01 07:57:31;;;;;;;10.05;4.95;;;23.00;99.90;;;;;;4894499;29;20051;-73
2022/08/01 08:00:01;;;;;;;14.45;5.30;;;23.00;99.90;;;;;;4894778;29;20425;-70
2022/08/01 08:02:31;;;;;;;;;;;23.10;99.90;;;;;;4897239;29;20048;-73
2022/08/01 08:04:58;;;;;;;12.43;5.40;;;23.30;99.90;;;;;;4899006;29;19927;-74
2022/08/01 08:07:25;;;;;;;11.80;4.43;;;23.40;99.90;;;;;;4894941;29;20715;-71
2022/08/01 08:09:53;;;;;;;10.90;4.50;;;23.40;99.90;;;;;;4895633;29;20048;-70
2022/08/01 08:12:20;;;;;;;9.98;4.43;;;23.40;99.90;;;;;;4901468;29;20084;-70
2022/08/01 08:14:49;;;;;;;6.55;3.55;;;23.30;99.90;;;;;;4912436;29;20361;-73
2022/08/01 08:17:17;;;;;;;10.32;4.20;;;23.20;99.90;;;;;;4898342;29;20536;-74
2022/08/01 08:19:44;;;;;;;7.68;3.80;;;23.20;99.90;;;;;;4898092;29;20044;-74
2022/08/01 08:22:11;;;;;;;5.15;3.63;;;23.20;99.90;;;;;;4895174;29;20187;-74
2022/08/01 08:24:39;;;;;;;3.63;3.33;;;23.20;99.90;;;;;;4894866;29;20052;-73
2022/08/01 08:27:07;;;;;;;6.35;4.18;;;23.10;99.90;;;;;;4893454;29;20056;-72
2022/08/01 08:29:34;;;;;;;4.10;3.70;;;23.00;99.90;;;;;;4898683;29;20059;-74
2022/08/01 08:32:03;;;;;;;4.65;3.78;;;23.00;99.90;;;;;;4898025;29;20433;-74
2022/08/01 08:34:31;;;;;;;6.97;2.40;;;22.90;99.90;;;;;;4894249;29;20052;-74
2022/08/01 08:36:59;;;;;;;6.80;3.80;;;22.90;99.90;;;;;;4892863;29;20052;-73
2022/08/01 08:39:29;;;;;;;7.63;2.35;;;22.90;99.90;;;;;;4896499;29;20459;-74
2022/08/01 08:41:58;;;;;;;4.55;2.88;;;22.80;99.90;;;;;;4888773;29;20044;-74
2022/08/01 08:44:25;;;;;;;4.65;2.33;;;22.60;99.90;;;;;;4902994;29;20549;-75
2022/08/01 08:46:55;;;;;;;3.05;2.00;;;22.70;99.90;;;;;;4900491;29;20055;-74
2022/08/01 08:49:27;;;;;;;5.05;1.75;;;22.70;99.90;;;;;;4881939;29;20433;-75
2022/08/01 08:51:58;;;;;;;4.10;2.13;;;22.90;99.90;;;;;;4893265;29;20135;-75
2022/08/01 08:54:27;;;;;;;6.53;1.92;;;23.10;99.90;;;;;;4893995;29;20048;-76
2022/08/01 08:56:55;;;;;;;4.40;1.55;;;23.20;99.90;;;;;;4892301;29;20096;-76
2022/08/01 08:59:24;;;;;;;8.73;2.63;;;23.30;99.90;;;;;;4897516;29;20564;-76
2022/08/01 09:01:51;;;;;;;5.90;2.17;;;23.30;99.90;;;;;;4884893;29;20056;-76
2022/08/01 09:04:18;;;;;;;5.53;2.40;;;23.50;99.90;;;;;;4889561;29;20494;-76
